Time;durP1;ratioP1;P1;durP2;ratioP2;P2;SDS_P1;SDS_P2;PMS_P1;PMS_P2;Temp;Humidity;BMP_temperature;BMP_pressure;BME280_temperature;BME280_humidity;BME280_pressure;Samples;Min_cycle;Max_cycle;Signal;HPM_P1;HPM_P2
2022/02/14 00:01:47;;;;;;;14.70;7.50;;;;;;;;;;10325659;28;20030;-62
2022/02/14 00:06:47;;;;;;;12.38;6.85;;;;;;;;;;10328449;28;20034;-62
2022/02/14 00:11:49;;;;;;;13.15;7.00;;;;;;;;;;10326929;28;20038;-62
2022/02/14 00:16:50;;;;;;;11.98;7.15;;;;;;;;;;10329444;28;20311;-62
2022/02/14 00:21:51;;;;;;;13.10;7.32;;;;;;;;;;10327902;28;20050;-62
2022/02/14 00:26:53;;;;;;;12.70;7.25;;;;;;;;;;10328628;28;20088;-62
2022/02/14 00:31:54;;;;;;;15.50;7.47;;;;;;;;;;10328050;28;20038;-61
2022/02/14 00:36:55;;;;;;;12.65;7.45;;;;;;;;;;10328642;28;20443;-61
2022/02/14 00:41:56;;;;;;;9.35;7.18;;;;;;;;;;10328258;28;20034;-63
2022/02/14 00:46:57;;;;;;;15.77;7.40;;;;;;;;;;10328099;28;20038;-63
2022/02/14 00:51:59;;;;;;;12.20;7.45;;;;;;;;;;10327024;28;20030;-63
2022/02/14 00:57:00;;;;;;;18.63;7.43;;;;;;;;;;10320820;28;20031;-63
2022/02/14 01:02:02;;;;;;;11.27;7.00;;;;;;;;;;10320173;28;20034;-63
2022/02/14 01:07:03;;;;;;;10.60;6.78;;;;;;;;;;10326372;28;20430;-63
2022/02/14 01:12:04;;;;;;;9.95;6.57;;;;;;;;;;10314751;28;20473;-62
2022/02/14 01:17:05;;;;;;;13.40;7.13;;;;;;;;;;10321009;28;20363;-61
2022/02/14 01:22:06;;;;;;;11.25;7.47;;;;;;;;;;10324838;28;20049;-61
2022/02/14 01:27:07;;;;;;;11.35;6.95;;;;;;;;;;10327241;28;20030;-61
2022/02/14 01:32:08;;;;;;;10.50;7.22;;;;;;;;;;10323195;28;20106;-63
2022/02/14 01:37:10;;;;;;;11.88;6.80;;;;;;;;;;10323141;28;20095;-63
2022/02/14 01:42:11;;;;;;;9.60;6.45;;;;;;;;;;10334804;28;20030;-62
2022/02/14 01:47:14;;;;;;;14.25;7.15;;;;;;;;;;10324079;28;20030;-63
2022/02/14 01:52:15;;;;;;;10.98;6.97;;;;;;;;;;10328611;28;20035;-62
2022/02/14 01:57:18;;;;;;;11.35;6.88;;;;;;;;;;10331160;28;20041;-61
2022/02/14 02:02:18;;;;;;;12.70;6.80;;;;;;;;;;10327399;28;20030;-61
2022/02/14 02:07:18;;;;;;;11.37;7.00;;;;;;;;;;10327104;28;20037;-61
2022/02/14 02:12:28;;;;;;;10.77;7.40;;;;;;;;;;10276297;28;21073;-60
2022/02/14 02:17:35;;;;;;;9.20;6.32;;;;;;;;;;10259164;28;20805;-60
2022/02/14 02:22:35;;;;;;;10.88;6.57;;;;;;;;;;10244033;28;20130;-61
2022/02/14 02:27:36;;;;;;;9.48;6.72;;;;;;;;;;10286862;28;20042;-60
2022/02/14 02:32:36;;;;;;;10.23;6.30;;;;;;;;;;10259946;28;20070;-60
2022/02/14 02:37:37;;;;;;;11.40;6.70;;;;;;;;;;10258672;28;20460;-60
2022/02/14 02:42:37;;;;;;;12.27;7.13;;;;;;;;;;10258450;28;20056;-60
2022/02/14 02:47:37;;;;;;;11.48;7.13;;;;;;;;;;10258986;28;20881;-61
2022/02/14 02:52:38;;;;;;;10.27;6.40;;;;;;;;;;10259271;28;20511;-60
2022/02/14 02:57:38;;;;;;;10.85;6.90;;;;;;;;;;10269053;28;20520;-63
2022/02/14 03:02:39;;;;;;;10.35;6.70;;;;;;;;;;10330169;28;20050;-62
2022/02/14 03:07:39;;;;;;;8.10;6.57;;;;;;;;;;10323729;28;20030;-63
2022/02/14 03:12:39;;;;;;;9.50;6.30;;;;;;;;;;10331428;28;20491;-62
2022/02/14 03:17:40;;;;;;;11.00;7.00;;;;;;;;;;10320843;28;20990;-62
2022/02/14 03:22:40;;;;;;;11.00;6.43;;;;;;;;;;10330512;28;20556;-62
2022/02/14 03:27:41;;;;;;;11.75;6.72;;;;;;;;;;10331510;28;20472;-62
2022/02/14 03:32:41;;;;;;;8.73;6.43;;;;;;;;;;10330271;28;20094;-62
2022/02/14 03:37:42;;;;;;;10.40;6.13;;;;;;;;;;10330615;28;20035;-62
2022/02/14 03:42:42;;;;;;;10.40;6.28;;;;;;;;;;10330683;28;20504;-62
2022/02/14 03:47:43;;;;;;;10.27;7.10;;;;;;;;;;10330633;28;20034;-62
2022/02/14 03:52:43;;;;;;;13.27;5.87;;;;;;;;;;10329597;28;20533;-61
2022/02/14 03:57:45;;;;;;;9.80;6.33;;;;;;;;;;10329990;28;20049;-62
2022/02/14 04:02:47;;;;;;;11.77;6.25;;;;;;;;;;10328548;28;20405;-63
2022/02/14 04:07:47;;;;;;;11.05;6.03;;;;;;;;;;10329417;28;20026;-63
2022/02/14 04:12:47;;;;;;;11.60;6.63;;;;;;;;;;10328671;28;20034;-63
2022/02/14 04:17:49;;;;;;;15.30;7.07;;;;;;;;;;10322431;28;20394;-64
2022/02/14 04:22:49;;;;;;;10.20;6.80;;;;;;;;;;10321185;28;20046;-63
2022/02/14 04:27:50;;;;;;;7.38;5.80;;;;;;;;;;10328942;28;20402;-63
2022/02/14 04:32:50;;;;;;;7.07;5.50;;;;;;;;;;10327990;28;20045;-61
2022/02/14 04:37:51;;;;;;;9.27;6.00;;;;;;;;;;10328532;28;20065;-62
2022/02/14 04:42:51;;;;;;;12.65;6.53;;;;;;;;;;10327861;28;20058;-62
2022/02/14 04:47:52;;;;;;;14.10;5.70;;;;;;;;;;10327941;28;20034;-62
2022/02/14 04:52:53;;;;;;;9.60;5.78;;;;;;;;;;10326751;28;20487;-64
2022/02/14 04:57:54;;;;;;;9.60;6.50;;;;;;;;;;10328030;28;20386;-62
2022/02/14 05:02:54;;;;;;;10.07;5.90;;;;;;;;;;10327308;28;20030;-62
2022/02/14 05:07:54;;;;;;;11.35;6.97;;;;;;;;;;10327950;28;20444;-63
2022/02/14 05:12:55;;;;;;;6.88;5.45;;;;;;;;;;10321447;28;20034;-62
2022/02/14 05:17:55;;;;;;;9.43;5.97;;;;;;;;;;10327471;28;20480;-64
2022/02/14 05:22:56;;;;;;;7.20;5.68;;;;;;;;;;10319650;28;20524;-62
2022/02/14 05:27:58;;;;;;;9.50;5.68;;;;;;;;;;10327147;28;20046;-63
2022/02/14 05:32:58;;;;;;;10.07;6.18;;;;;;;;;;10319204;28;20069;-63
2022/02/14 05:37:59;;;;;;;8.18;5.25;;;;;;;;;;10327792;28;20109;-62
2022/02/14 05:43:00;;;;;;;7.90;5.40;;;;;;;;;;10326839;28;20544;-62
2022/02/14 05:48:00;;;;;;;8.63;6.47;;;;;;;;;;10327111;28;20092;-62
2022/02/14 05:53:01;;;;;;;8.93;6.23;;;;;;;;;;10326023;28;20034;-62
2022/02/14 05:58:03;;;;;;;7.75;5.93;;;;;;;;;;10326552;28;21064;-62
2022/02/14 06:03:03;;;;;;;7.50;5.32;;;;;;;;;;10326402;28;20113;-62
2022/02/14 06:08:04;;;;;;;9.40;5.57;;;;;;;;;;10326089;28;20407;-62
2022/02/14 06:13:04;;;;;;;11.63;6.18;;;;;;;;;;10326582;28;20546;-61
2022/02/14 06:18:05;;;;;;;7.50;5.87;;;;;;;;;;10300436;28;20097;-63
2022/02/14 06:23:05;;;;;;;10.35;5.82;;;;;;;;;;10325126;28;20908;-63
2022/02/14 06:28:06;;;;;;;7.82;5.32;;;;;;;;;;10312032;28;20061;-63
2022/02/14 06:33:07;;;;;;;9.20;4.45;;;;;;;;;;10320030;28;20400;-61
2022/02/14 06:38:07;;;;;;;6.83;5.20;;;;;;;;;;10333324;28;20026;-62
2022/02/14 06:43:07;;;;;;;9.40;5.20;;;;;;;;;;10324561;28;20034;-61
2022/02/14 06:48:08;;;;;;;7.23;5.23;;;;;;;;;;10332789;28;20037;-61
2022/02/14 06:53:08;;;;;;;8.13;4.93;;;;;;;;;;10332184;28;20676;-61
2022/02/14 06:58:09;;;;;;;7.53;5.00;;;;;;;;;;10331862;28;20029;-64
2022/02/14 07:03:10;;;;;;;9.30;5.17;;;;;;;;;;10330950;28;20034;-64
2022/02/14 07:08:11;;;;;;;9.55;5.57;;;;;;;;;;10331425;28;21029;-64
2022/02/14 07:13:11;;;;;;;16.40;5.60;;;;;;;;;;10325997;28;20035;-63
2022/02/14 07:18:12;;;;;;;10.13;4.93;;;;;;;;;;10334436;28;20456;-63
2022/02/14 07:23:13;;;;;;;9.05;5.07;;;;;;;;;;10328875;28;20391;-63
2022/02/14 07:28:14;;;;;;;8.02;5.10;;;;;;;;;;10330251;28;20030;-66
2022/02/14 07:33:14;;;;;;;12.68;6.10;;;;;;;;;;10323506;28;20038;-61
2022/02/14 07:38:15;;;;;;;13.93;6.33;;;;;;;;;;10325523;28;20030;-61
2022/02/14 07:43:15;;;;;;;16.17;6.85;;;;;;;;;;10314072;28;20460;-60
2022/02/14 07:48:17;;;;;;;18.07;6.90;;;;;;;;;;10326204;28;20091;-60
2022/02/14 07:53:19;;;;;;;9.85;6.15;;;;;;;;;;10329619;28;20034;-60
2022/02/14 07:58:19;;;;;;;20.15;7.70;;;;;;;;;;10322736;28;20030;-58
2022/02/14 08:03:21;;;;;;;24.13;12.52;;;;;;;;;;10253565;28;20030;-57
2022/02/14 08:08:21;;;;;;;24.45;11.35;;;;;;;;;;10254742;28;20069;-58
2022/02/14 08:13:21;;;;;;;18.40;9.03;;;;;;;;;;10256231;28;20409;-60
2022/02/14 08:18:22;;;;;;;13.20;7.53;;;;;;;;;;10253067;28;20475;-59
2022/02/14 08:23:23;;;;;;;16.08;7.38;;;;;;;;;;10230073;23;20587;-58
2022/02/14 08:28:23;;;;;;;12.03;8.00;;;;;;;;;;10196010;28;20447;-61
2022/02/14 08:33:23;;;;;;;15.70;8.03;;;;;;;;;;10224225;28;20141;-59
2022/02/14 08:38:24;;;;;;;12.40;7.73;;;;;;;;;;10212069;28;21048;-59
2022/02/14 08:43:24;;;;;;;17.77;7.73;;;;;;;;;;10202555;28;20046;-55
2022/02/14 08:48:25;;;;;;;13.47;7.33;;;;;;;;;;10210561;28;20031;-59
2022/02/14 08:53:25;;;;;;;15.95;7.50;;;;;;;;;;10204032;28;20039;-59
2022/02/14 08:58:28;;;;;;;12.98;6.78;;;;;;;;;;10211635;28;20027;-59
2022/02/14 09:03:28;;;;;;;10.57;6.68;;;;;;;;;;10211351;28;20105;-60
2022/02/14 09:08:29;;;;;;;12.02;7.05;;;;;;;;;;10209334;28;20123;-59
2022/02/14 09:13:33;;;;;;;11.20;6.65;;;;;;;;;;10204703;28;20039;-57
2022/02/14 09:18:35;;;;;;;12.00;7.05;;;;;;;;;;10209866;28;20382;-59
2022/02/14 09:23:36;;;;;;;10.70;6.90;;;;;;;;;;10209488;28;20050;-59
2022/02/14 09:28:37;;;;;;;13.25;6.72;;;;;;;;;;10208052;28;20031;-56
2022/02/14 09:33:37;;;;;;;16.38;6.80;;;;;;;;;;10201537;28;20042;-55
2022/02/14 09:38:38;;;;;;;12.27;6.40;;;;;;;;;;10199326;28;20030;-55
2022/02/14 09:43:38;;;;;;;10.03;5.73;;;;;;;;;;10200924;28;20549;-57
2022/02/14 09:48:41;;;;;;;13.70;5.93;;;;;;;;;;10205494;28;20580;-59
2022/02/14 09:53:42;;;;;;;15.43;6.00;;;;;;;;;;10193123;28;20084;-60
2022/02/14 09:58:43;;;;;;;11.05;6.75;;;;;;;;;;10197895;28;20039;-59
2022/02/14 10:03:52;;;;;;;11.80;6.27;;;;;;;;;;10201802;28;20046;-61
2022/02/14 10:09:08;;;;;;;9.82;6.20;;;;;;;;;;10212388;28;21172;-55
2022/02/14 10:14:17;;;;;;;10.23;6.15;;;;;;;;;;10215999;28;20445;-60
2022/02/14 10:19:17;;;;;;;11.68;6.65;;;;;;;;;;10213934;28;20073;-60
2022/02/14 10:24:18;;;;;;;12.55;5.63;;;;;;;;;;10219634;28;20050;-59
2022/02/14 10:29:24;;;;;;;10.65;6.00;;;;;;;;;;10225706;28;20434;-60
2022/02/14 10:35:07;;;;;;;12.93;5.95;;;;;;;;;;10210559;28;20035;-59
2022/02/14 10:40:08;;;;;;;9.48;6.10;;;;;;;;;;10176554;28;20688;-59
2022/02/14 10:45:09;;;;;;;14.70;6.32;;;;;;;;;;10181179;28;20043;-60
2022/02/14 10:50:15;;;;;;;8.20;5.50;;;;;;;;;;10181474;28;20403;-61
2022/02/14 10:55:17;;;;;;;12.73;5.75;;;;;;;;;;10178697;28;20211;-60
2022/02/14 11:00:20;;;;;;;10.60;5.70;;;;;;;;;;10188267;28;20049;-62
2022/02/14 11:05:21;;;;;;;9.88;5.93;;;;;;;;;;10174184;28;20725;-59
2022/02/14 11:10:22;;;;;;;12.25;6.25;;;;;;;;;;10202564;28;20153;-59
2022/02/14 11:15:24;;;;;;;9.32;5.28;;;;;;;;;;10236103;28;20031;-59
2022/02/14 11:20:24;;;;;;;8.35;5.75;;;;;;;;;;10222546;28;20065;-60
2022/02/14 11:25:48;;;;;;;15.25;5.97;;;;;;;;;;10215580;28;20035;-58
2022/02/14 11:30:53;;;;;;;7.78;5.47;;;;;;;;;;10204077;28;20623;-59
2022/02/14 11:36:01;;;;;;;9.95;5.30;;;;;;;;;;10196681;28;20031;-53
2022/02/14 11:41:35;;;;;;;8.67;5.63;;;;;;;;;;10202923;28;20370;-59
2022/02/14 11:46:36;;;;;;;8.93;5.55;;;;;;;;;;10204053;28;20345;-54
2022/02/14 11:51:53;;;;;;;9.73;5.60;;;;;;;;;;10208678;28;20030;-62
2022/02/14 11:56:55;;;;;;;8.10;5.50;;;;;;;;;;10206872;28;20121;-59
2022/02/14 12:02:01;;;;;;;8.20;5.43;;;;;;;;;;10203674;28;20031;-60
2022/02/14 12:07:23;;;;;;;8.80;5.35;;;;;;;;;;10213586;28;20038;-56
2022/02/14 12:12:38;;;;;;;8.90;5.88;;;;;;;;;;10213683;28;20039;-55
2022/02/14 12:22:58;;;;;;;7.03;5.32;;;;;;;;;;10213601;28;20054;-55
2022/02/14 12:28:07;;;;;;;12.17;6.13;;;;;;;;;;10224292;28;20456;-56
2022/02/14 12:33:08;;;;;;;;;;;;;;;;;;10212998;28;20202;-54
2022/02/14 12:38:08;;;;;;;6.72;5.10;;;;;;;;;;10264894;28;20341;-54
2022/02/14 12:43:09;;;;;;;8.27;5.38;;;;;;;;;;10282799;28;20142;-57
2022/02/14 12:48:28;;;;;;;9.38;5.40;;;;;;;;;;10290613;28;20027;-58
2022/02/14 12:53:29;;;;;;;10.68;5.82;;;;;;;;;;10285153;28;20498;-54
2022/02/14 12:58:29;;;;;;;9.70;5.78;;;;;;;;;;10281840;28;20109;-55
2022/02/14 13:03:30;;;;;;;23.03;5.83;;;;;;;;;;10281090;28;20031;-54
2022/02/14 13:08:32;;;;;;;10.60;5.63;;;;;;;;;;10255492;28;20030;-58
2022/02/14 13:13:39;;;;;;;7.30;5.07;;;;;;;;;;10256617;28;20477;-54
2022/02/14 13:18:47;;;;;;;8.93;5.38;;;;;;;;;;10281384;28;20393;-57
2022/02/14 13:23:48;;;;;;;24.08;5.15;;;;;;;;;;10283736;28;20137;-56
2022/02/14 13:28:50;;;;;;;6.55;5.10;;;;;;;;;;10276911;28;20027;-57
2022/02/14 13:33:52;;;;;;;7.47;5.22;;;;;;;;;;10285510;28;20034;-55
2022/02/14 13:38:54;;;;;;;10.95;5.38;;;;;;;;;;10286030;28;20376;-56
2022/02/14 13:43:55;;;;;;;7.35;5.30;;;;;;;;;;10279697;28;20387;-56
2022/02/14 13:48:55;;;;;;;8.20;5.30;;;;;;;;;;10285693;28;20030;-54
2022/02/14 13:53:59;;;;;;;7.70;4.73;;;;;;;;;;10295400;28;20371;-51
2022/02/14 13:59:12;;;;;;;10.68;4.97;;;;;;;;;;10297819;28;20457;-54
2022/02/14 14:04:19;;;;;;;9.10;5.10;;;;;;;;;;10293530;28;20089;-50
2022/02/14 14:09:24;;;;;;;11.30;4.68;;;;;;;;;;10235860;28;20134;-60
2022/02/14 14:14:39;;;;;;;10.07;5.13;;;;;;;;;;10192368;28;20035;-64
2022/02/14 14:19:56;;;;;;;13.55;4.72;;;;;;;;;;10198299;28;20577;-60
2022/02/14 14:24:59;;;;;;;10.18;5.60;;;;;;;;;;10199288;28;20505;-60
2022/02/14 14:30:00;;;;;;;6.55;4.53;;;;;;;;;;10202236;28;20041;-58
2022/02/14 14:35:01;;;;;;;9.52;5.20;;;;;;;;;;10205341;28;20830;-59
2022/02/14 14:40:03;;;;;;;6.60;4.70;;;;;;;;;;10214455;28;20441;-61
2022/02/14 14:45:05;;;;;;;16.92;4.75;;;;;;;;;;10212643;28;20303;-52
2022/02/14 14:50:06;;;;;;;7.90;4.85;;;;;;;;;;10218450;28;20486;-59
2022/02/14 14:55:07;;;;;;;14.30;5.45;;;;;;;;;;10196646;28;20470;-60
2022/02/14 15:00:09;;;;;;;9.95;5.20;;;;;;;;;;10205032;28;20132;-58
2022/02/14 15:05:10;;;;;;;10.73;4.95;;;;;;;;;;10204936;28;20042;-59
2022/02/14 15:10:11;;;;;;;12.43;4.88;;;;;;;;;;10205047;28;20073;-60
2022/02/14 15:15:12;;;;;;;7.18;4.65;;;;;;;;;;10199116;28;20031;-61
2022/02/14 15:20:13;;;;;;;7.57;4.35;;;;;;;;;;10200396;28;20420;-61
2022/02/14 15:25:13;;;;;;;7.50;4.10;;;;;;;;;;10187650;28;20030;-62
2022/02/14 15:30:22;;;;;;;8.03;4.20;;;;;;;;;;10213650;28;20289;-61
2022/02/14 15:35:23;;;;;;;10.52;5.05;;;;;;;;;;10210934;28;20459;-58
2022/02/14 15:40:23;;;;;;;11.32;4.15;;;;;;;;;;10210346;28;20500;-58
2022/02/14 15:45:23;;;;;;;11.47;4.27;;;;;;;;;;10206247;28;20031;-60
2022/02/14 15:50:24;;;;;;;9.33;4.47;;;;;;;;;;10200930;28;20732;-59
2022/02/14 15:55:26;;;;;;;8.50;4.05;;;;;;;;;;10212385;28;20038;-60
2022/02/14 16:00:26;;;;;;;7.88;4.45;;;;;;;;;;10211676;28;20081;-61
2022/02/14 16:05:31;;;;;;;9.65;4.30;;;;;;;;;;10201425;28;20410;-60
2022/02/14 16:10:31;;;;;;;8.73;4.70;;;;;;;;;;10207100;28;20049;-60
2022/02/14 16:15:31;;;;;;;6.00;3.73;;;;;;;;;;10212923;28;20791;-59
2022/02/14 16:20:32;;;;;;;9.93;4.57;;;;;;;;;;10202158;28;20485;-59
2022/02/14 16:25:33;;;;;;;9.88;4.15;;;;;;;;;;10191981;28;20468;-58
2022/02/14 16:30:34;;;;;;;9.15;4.75;;;;;;;;;;10189586;28;20031;-59
2022/02/14 16:35:35;;;;;;;7.05;4.28;;;;;;;;;;10204470;28;20038;-61
2022/02/14 16:40:35;;;;;;;7.35;3.95;;;;;;;;;;10212347;28;20402;-59
2022/02/14 16:45:36;;;;;;;7.88;3.95;;;;;;;;;;10216601;28;20026;-59
2022/02/14 16:50:36;;;;;;;9.70;4.43;;;;;;;;;;10209320;28;20592;-60
2022/02/14 16:55:37;;;;;;;5.53;4.30;;;;;;;;;;10214392;28;20038;-56
2022/02/14 17:00:38;;;;;;;8.70;4.78;;;;;;;;;;10218972;28;20435;-55
2022/02/14 17:05:38;;;;;;;9.95;5.13;;;;;;;;;;10211427;28;20217;-59
2022/02/14 17:10:39;;;;;;;9.80;5.05;;;;;;;;;;10212399;28;20561;-50
2022/02/14 17:15:39;;;;;;;13.95;5.10;;;;;;;;;;10208487;28;20034;-59
2022/02/14 17:20:40;;;;;;;11.10;4.87;;;;;;;;;;10206181;28;20039;-59
2022/02/14 17:25:40;;;;;;;7.32;4.82;;;;;;;;;;10209394;28;20563;-53
2022/02/14 17:30:42;;;;;;;7.88;4.55;;;;;;;;;;10208885;28;20477;-58
2022/02/14 17:35:42;;;;;;;8.93;4.53;;;;;;;;;;10196582;28;20438;-54
2022/02/14 17:40:42;;;;;;;7.32;4.53;;;;;;;;;;10194303;28;20278;-58
2022/02/14 17:45:43;;;;;;;7.47;4.03;;;;;;;;;;10199946;28;20041;-54
2022/02/14 17:50:43;;;;;;;8.35;4.15;;;;;;;;;;10203917;28;20826;-56
2022/02/14 17:55:44;;;;;;;11.87;4.40;;;;;;;;;;10207484;28;20145;-53
2022/02/14 18:00:45;;;;;;;43.93;5.67;;;;;;;;;;10209250;28;20513;-59
2022/02/14 18:05:47;;;;;;;29.23;4.45;;;;;;;;;;10210100;28;20655;-56
2022/02/14 18:10:48;;;;;;;28.55;5.07;;;;;;;;;;10208279;28;20269;-55
2022/02/14 18:15:49;;;;;;;19.33;4.70;;;;;;;;;;10210090;28;20055;-51
2022/02/14 18:20:50;;;;;;;13.67;4.47;;;;;;;;;;10213520;28;20362;-56
2022/02/14 18:25:50;;;;;;;13.10;4.65;;;;;;;;;;10214574;28;20350;-55
2022/02/14 18:30:51;;;;;;;24.83;5.50;;;;;;;;;;10214195;28;20117;-57
2022/02/14 18:35:51;;;;;;;21.87;4.13;;;;;;;;;;10262307;28;20821;-60
2022/02/14 18:40:52;;;;;;;15.52;4.88;;;;;;;;;;10249890;28;20405;-60
2022/02/14 18:45:52;;;;;;;13.87;4.33;;;;;;;;;;10278807;28;20031;-59
2022/02/14 18:50:53;;;;;;;13.20;5.10;;;;;;;;;;10294462;28;20039;-59
2022/02/14 18:55:54;;;;;;;10.82;5.78;;;;;;;;;;10304052;28;20461;-59
2022/02/14 19:00:56;;;;;;;15.63;5.25;;;;;;;;;;10297845;28;20446;-59
2022/02/14 19:05:56;;;;;;;12.27;5.25;;;;;;;;;;10315736;28;20023;-58
2022/02/14 19:10:57;;;;;;;9.50;5.13;;;;;;;;;;10307373;28;20979;-58
2022/02/14 19:15:58;;;;;;;13.18;6.43;;;;;;;;;;10286044;28;20116;-58
2022/02/14 19:21:01;;;;;;;8.82;6.20;;;;;;;;;;10284607;28;20075;-59
2022/02/14 19:26:02;;;;;;;16.38;6.82;;;;;;;;;;10291633;28;20106;-59
2022/02/14 19:31:03;;;;;;;16.00;6.63;;;;;;;;;;10289816;28;20030;-55
2022/02/14 19:36:03;;;;;;;23.55;8.20;;;;;;;;;;10292907;28;20042;-58
2022/02/14 19:41:04;;;;;;;24.80;7.18;;;;;;;;;;10278610;28;20495;-59
2022/02/14 19:46:05;;;;;;;19.05;7.85;;;;;;;;;;10280724;28;20041;-59
2022/02/14 19:51:06;;;;;;;15.93;6.80;;;;;;;;;;10275006;28;20033;-58
2022/02/14 19:56:08;;;;;;;17.80;6.50;;;;;;;;;;10274701;28;20023;-58
2022/02/14 20:01:09;;;;;;;18.52;6.63;;;;;;;;;;10281057;28;20038;-60
2022/02/14 20:06:13;;;;;;;15.73;6.15;;;;;;;;;;10284226;28;20505;-63
2022/02/14 20:11:13;;;;;;;18.95;6.55;;;;;;;;;;10287604;28;20058;-59
2022/02/14 20:16:14;;;;;;;22.88;6.35;;;;;;;;;;10290222;28;20446;-60
2022/02/14 20:21:15;;;;;;;12.30;5.60;;;;;;;;;;10305365;28;20039;-59
2022/02/14 20:26:17;;;;;;;14.48;5.95;;;;;;;;;;10288382;28;20805;-58
2022/02/14 20:31:17;;;;;;;16.52;6.60;;;;;;;;;;10274773;28;20557;-58
2022/02/14 20:36:18;;;;;;;15.07;6.17;;;;;;;;;;10274361;28;20034;-58
2022/02/14 20:41:18;;;;;;;15.67;5.83;;;;;;;;;;10275300;28;20474;-58
2022/02/14 20:46:18;;;;;;;15.07;5.67;;;;;;;;;;10279202;28;20077;-57
2022/02/14 20:51:19;;;;;;;15.63;5.90;;;;;;;;;;10264621;28;20821;-56
2022/02/14 20:56:20;;;;;;;11.38;5.38;;;;;;;;;;10270058;28;20548;-60
2022/02/14 21:01:20;;;;;;;9.80;5.15;;;;;;;;;;10280964;28;20027;-63
2022/02/14 21:06:21;;;;;;;10.90;5.00;;;;;;;;;;10281384;28;20707;-63
2022/02/14 21:11:22;;;;;;;10.00;5.18;;;;;;;;;;10292662;28;20031;-59
2022/02/14 21:16:23;;;;;;;11.93;5.43;;;;;;;;;;10304985;28;20026;-64
2022/02/14 21:21:24;;;;;;;10.33;4.77;;;;;;;;;;10304771;28;20062;-63
2022/02/14 21:26:24;;;;;;;10.55;4.47;;;;;;;;;;10295004;28;20460;-63
2022/02/14 21:31:24;;;;;;;8.53;5.67;;;;;;;;;;10295589;28;20027;-64
2022/02/14 21:36:25;;;;;;;10.13;5.30;;;;;;;;;;10300588;28;20560;-65
2022/02/14 21:41:28;;;;;;;14.55;5.20;;;;;;;;;;10284438;28;20430;-65
2022/02/14 21:46:28;;;;;;;12.50;5.88;;;;;;;;;;10283713;28;20043;-59
2022/02/14 21:51:29;;;;;;;13.30;7.32;;;;;;;;;;10278853;28;20042;-58
2022/02/14 21:56:31;;;;;;;16.00;6.43;;;;;;;;;;10283191;28;20383;-57
2022/02/14 22:01:31;;;;;;;23.05;8.70;;;;;;;;;;10294839;28;20031;-56
2022/02/14 22:11:51;;;;;;;17.92;7.55;;;;;;;;;;10286140;28;20038;-57
2022/02/14 22:16:51;;;;;;;14.40;7.23;;;;;;;;;;10286217;28;20418;-57
2022/02/14 22:21:51;;;;;;;18.13;8.03;;;;;;;;;;10283347;28;20465;-56
2022/02/14 22:26:52;;;;;;;18.05;7.22;;;;;;;;;;10290145;28;20031;-57
2022/02/14 22:31:52;;;;;;;16.23;7.80;;;;;;;;;;10282190;28;20248;-56
2022/02/14 22:36:53;;;;;;;15.73;7.72;;;;;;;;;;10282520;28;20015;-61
2022/02/14 22:41:55;;;;;;;17.27;7.20;;;;;;;;;;10288251;28;20425;-60
2022/02/14 22:46:55;;;;;;;18.27;8.20;;;;;;;;;;10288317;28;20469;-59
2022/02/14 22:51:56;;;;;;;23.13;8.10;;;;;;;;;;10288726;28;20062;-58
2022/02/14 22:56:56;;;;;;;19.67;8.53;;;;;;;;;;10275502;28;20089;-58
2022/02/14 23:17:53;;;;;;;23.77;8.02;;;;;;;;;;10284710;28;20326;-59
2022/02/14 23:22:54;;;;;;;17.57;8.67;;;;;;;;;;10288798;28;20035;-59
2022/02/14 23:27:54;;;;;;;15.57;8.40;;;;;;;;;;10286132;28;20461;-59
2022/02/14 23:32:55;;;;;;;15.00;8.23;;;;;;;;;;10283802;28;20473;-59
2022/02/14 23:37:56;;;;;;;16.77;7.95;;;;;;;;;;10285658;28;20022;-59
2022/02/14 23:42:56;;;;;;;18.40;9.20;;;;;;;;;;10286185;28;20419;-58
2022/02/14 23:47:57;;;;;;;18.47;8.10;;;;;;;;;;10285384;28;20038;-58
2022/02/14 23:52:57;;;;;;;14.53;7.90;;;;;;;;;;10288346;28;21070;-58
2022/02/14 23:57:57;;;;;;;16.17;8.30;;;;;;;;;;10289868;28;20456;-58
